sensor_id;sensor_type;location;lat;lon;timestamp;pressure;altitude;pressure_sealevel;temperature;humidity
49583;BME280;36329;48.816;44.624;2023-11-19T00:00:43;101674;;;3;100
49583;BME280;36329;48.816;44.624;2023-11-19T00:03:45;101679;;;3;100
49583;BME280;36329;48.816;44.624;2023-11-19T00:06:47;101671;;;3;100
49583;BME280;36329;48.816;44.624;2023-11-19T00:09:49;101655;;;3;100
49583;BME280;36329;48.816;44.624;2023-11-19T00:12:51;101653;;;3.1;100
49583;BME280;36329;48.816;44.624;2023-11-19T00:15:52;101668;;;3.2;100
49583;BME280;36329;48.816;44.624;2023-11-19T00:18:54;101663;;;3;100
49583;BME280;36329;48.816;44.624;2023-11-19T00:21:56;101668;;;3.1;100
49583;BME280;36329;48.816;44.624;2023-11-19T00:24:59;101668;;;3.2;100
49583;BME280;36329;48.816;44.624;2023-11-19T00:28:01;101667;;;3;100
49583;BME280;36329;48.816;44.624;2023-11-19T00:31:03;101655;;;2.9;100
49583;BME280;36329;48.816;44.624;2023-11-19T00:34:05;101649;;;2.9;100
49583;BME280;36329;48.816;44.624;2023-11-19T00:37:06;101658;;;2.5;100
49583;BME280;36329;48.816;44.624;2023-11-19T00:40:09;101649;;;2.8;100
49583;BME280;36329;48.816;44.624;2023-11-19T00:43:11;101647;;;2.8;100
49583;BME280;36329;48.816;44.624;2023-11-19T00:46:13;101654;;;2.9;100
49583;BME280;36329;48.816;44.624;2023-11-19T00:49:15;101648;;;2.8;100
49583;BME280;36329;48.816;44.624;2023-11-19T00:52:17;101637;;;2.8;100
49583;BME280;36329;48.816;44.624;2023-11-19T00:55:19;101641;;;3;100
49583;BME280;36329;48.816;44.624;2023-11-19T00:58:21;101633;;;2.9;100
49583;BME280;36329;48.816;44.624;2023-11-19T01:01:23;101637;;;2.8;100
49583;BME280;36329;48.816;44.624;2023-11-19T01:04:25;101630;;;2.7;100
49583;BME280;36329;48.816;44.624;2023-11-19T01:07:27;101634;;;2.7;100
49583;BME280;36329;48.816;44.624;2023-11-19T01:10:29;101621;;;2.8;100
49583;BME280;36329;48.816;44.624;2023-11-19T01:13:31;101626;;;2.8;100
49583;BME280;36329;48.816;44.624;2023-11-19T01:16:33;101627;;;2.8;100
49583;BME280;36329;48.816;44.624;2023-11-19T01:19:35;101633;;;2.9;100
49583;BME280;36329;48.816;44.624;2023-11-19T01:22:36;101627;;;2.8;100
49583;BME280;36329;48.816;44.624;2023-11-19T01:25:39;101640;;;2.8;100
49583;BME280;36329;48.816;44.624;2023-11-19T01:28:41;101645;;;2.7;100
49583;BME280;36329;48.816;44.624;2023-11-19T01:31:45;101639;;;2.8;100
49583;BME280;36329;48.816;44.624;2023-11-19T01:34:47;101639;;;2.9;100
49583;BME280;36329;48.816;44.624;2023-11-19T01:37:49;101653;;;2.8;100
49583;BME280;36329;48.816;44.624;2023-11-19T01:40:55;101652;;;2.8;100
49583;BME280;36329;48.816;44.624;2023-11-19T01:43:59;101642;;;2.5;100
49583;BME280;36329;48.816;44.624;2023-11-19T01:47:02;101659;;;2.5;100
49583;BME280;36329;48.816;44.624;2023-11-19T01:50:06;101654;;;2.5;100
49583;BME280;36329;48.816;44.624;2023-11-19T01:53:09;101644;;;2.7;100
49583;BME280;36329;48.816;44.624;2023-11-19T01:56:13;101650;;;2.7;100
49583;BME280;36329;48.816;44.624;2023-11-19T01:59:16;101637;;;2.8;100
49583;BME280;36329;48.816;44.624;2023-11-19T02:02:18;101646;;;2.8;100
49583;BME280;36329;48.816;44.624;2023-11-19T02:05:20;101647;;;2.7;100
49583;BME280;36329;48.816;44.624;2023-11-19T02:08:23;101649;;;2.7;100
49583;BME280;36329;48.816;44.624;2023-11-19T02:11:24;101669;;;2.7;100
49583;BME280;36329;48.816;44.624;2023-11-19T02:14:27;101647;;;2.7;100
49583;BME280;36329;48.816;44.624;2023-11-19T02:17:30;101648;;;2.7;100
49583;BME280;36329;48.816;44.624;2023-11-19T02:20:32;101651;;;2.8;100
49583;BME280;36329;48.816;44.624;2023-11-19T02:23:34;101659;;;2.7;100
49583;BME280;36329;48.816;44.624;2023-11-19T02:26:39;101649;;;2.7;100
49583;BME280;36329;48.816;44.624;2023-11-19T02:29:41;101643;;;2.7;100
49583;BME280;36329;48.816;44.624;2023-11-19T02:32:43;101635;;;2.6;100
49583;BME280;36329;48.816;44.624;2023-11-19T02:35:45;101630;;;2.5;100
49583;BME280;36329;48.816;44.624;2023-11-19T02:38:47;101617;;;2.5;100
49583;BME280;36329;48.816;44.624;2023-11-19T02:41:49;101614;;;2.5;100
49583;BME280;36329;48.816;44.624;2023-11-19T02:44:52;101616;;;2.5;100
49583;BME280;36329;48.816;44.624;2023-11-19T02:47:54;101615;;;2.5;100
49583;BME280;36329;48.816;44.624;2023-11-19T02:50:56;101617;;;2.4;100
49583;BME280;36329;48.816;44.624;2023-11-19T02:53:58;101615;;;2.3;100
49583;BME280;36329;48.816;44.624;2023-11-19T02:57:00;101626;;;2.4;100
49583;BME280;36329;48.816;44.624;2023-11-19T03:00:02;101624;;;2.4;100
49583;BME280;36329;48.816;44.624;2023-11-19T03:03:06;101638;;;2.5;100
49583;BME280;36329;48.816;44.624;2023-11-19T03:06:08;101628;;;2.5;100
49583;BME280;36329;48.816;44.624;2023-11-19T03:09:10;101623;;;2.4;100
49583;BME280;36329;48.816;44.624;2023-11-19T03:12:12;101630;;;2.4;100
49583;BME280;36329;48.816;44.624;2023-11-19T03:15:14;101621;;;2.3;100
49583;BME280;36329;48.816;44.624;2023-11-19T03:18:16;101621;;;2.3;100
49583;BME280;36329;48.816;44.624;2023-11-19T03:21:18;101615;;;2.3;100
49583;BME280;36329;48.816;44.624;2023-11-19T03:24:20;101608;;;2.3;100
49583;BME280;36329;48.816;44.624;2023-11-19T03:27:22;101615;;;2.1;100
49583;BME280;36329;48.816;44.624;2023-11-19T03:30:24;101613;;;2.1;100
49583;BME280;36329;48.816;44.624;2023-11-19T03:33:25;101600;;;2.1;100
49583;BME280;36329;48.816;44.624;2023-11-19T03:36:31;101591;;;2.2;100
49583;BME280;36329;48.816;44.624;2023-11-19T03:39:34;101599;;;2.2;100
49583;BME280;36329;48.816;44.624;2023-11-19T03:42:36;101601;;;2.2;100
49583;BME280;36329;48.816;44.624;2023-11-19T03:45:38;101588;;;2.1;100
49583;BME280;36329;48.816;44.624;2023-11-19T03:48:40;101573;;;2.1;100
49583;BME280;36329;48.816;44.624;2023-11-19T03:51:42;101575;;;2;100
49583;BME280;36329;48.816;44.624;2023-11-19T03:54:45;101579;;;2;100
49583;BME280;36329;48.816;44.624;2023-11-19T03:57:46;101590;;;2;100
49583;BME280;36329;48.816;44.624;2023-11-19T04:00:48;101588;;;1.8;100
49583;BME280;36329;48.816;44.624;2023-11-19T04:03:50;101577;;;1.8;100
49583;BME280;36329;48.816;44.624;2023-11-19T04:06:53;101589;;;1.9;100
49583;BME280;36329;48.816;44.624;2023-11-19T04:09:55;101578;;;2;100
49583;BME280;36329;48.816;44.624;2023-11-19T04:12:57;101579;;;2;100
49583;BME280;36329;48.816;44.624;2023-11-19T04:15:59;101578;;;2;100
49583;BME280;36329;48.816;44.624;2023-11-19T04:19:01;101600;;;2.1;100
49583;BME280;36329;48.816;44.624;2023-11-19T04:22:03;101610;;;2;100
49583;BME280;36329;48.816;44.624;2023-11-19T04:25:06;101616;;;2.1;100
49583;BME280;36329;48.816;44.624;2023-11-19T04:28:08;101619;;;2.2;100
49583;BME280;36329;48.816;44.624;2023-11-19T04:31:10;101622;;;2;100
49583;BME280;36329;48.816;44.624;2023-11-19T04:34:12;101620;;;2.1;100
49583;BME280;36329;48.816;44.624;2023-11-19T04:37:14;101618;;;1.9;100
49583;BME280;36329;48.816;44.624;2023-11-19T04:40:17;101619;;;1.9;100
49583;BME280;36329;48.816;44.624;2023-11-19T04:43:20;101619;;;2;100
49583;BME280;36329;48.816;44.624;2023-11-19T04:46:22;101615;;;2.1;100
49583;BME280;36329;48.816;44.624;2023-11-19T04:49:24;101629;;;2;100
49583;BME280;36329;48.816;44.624;2023-11-19T04:52:26;101624;;;2;100
49583;BME280;36329;48.816;44.624;2023-11-19T04:55:28;101624;;;2;100
49583;BME280;36329;48.816;44.624;2023-11-19T04:58:30;101629;;;1.9;100
49583;BME280;36329;48.816;44.624;2023-11-19T05:01:32;101634;;;1.9;100
49583;BME280;36329;48.816;44.624;2023-11-19T05:04:34;101631;;;2;100
49583;BME280;36329;48.816;44.624;2023-11-19T05:07:36;101620;;;1.9;100
49583;BME280;36329;48.816;44.624;2023-11-19T05:10:38;101625;;;1.9;100
49583;BME280;36329;48.816;44.624;2023-11-19T05:13:40;101638;;;2;100
49583;BME280;36329;48.816;44.624;2023-11-19T05:16:42;101631;;;2;100
49583;BME280;36329;48.816;44.624;2023-11-19T05:19:44;101632;;;2.1;100
49583;BME280;36329;48.816;44.624;2023-11-19T05:22:46;101634;;;2.1;100
49583;BME280;36329;48.816;44.624;2023-11-19T05:25:47;101639;;;2.1;100
49583;BME280;36329;48.816;44.624;2023-11-19T05:28:50;101648;;;2.1;100
49583;BME280;36329;48.816;44.624;2023-11-19T05:31:52;101644;;;2.2;100
49583;BME280;36329;48.816;44.624;2023-11-19T05:34:54;101642;;;2.1;100
49583;BME280;36329;48.816;44.624;2023-11-19T05:37:56;101642;;;2.2;100
49583;BME280;36329;48.816;44.624;2023-11-19T05:40:58;101646;;;2;100
49583;BME280;36329;48.816;44.624;2023-11-19T05:44:00;101640;;;2.1;100
49583;BME280;36329;48.816;44.624;2023-11-19T05:47:02;101634;;;2;100
49583;BME280;36329;48.816;44.624;2023-11-19T05:50:04;101629;;;2;100
49583;BME280;36329;48.816;44.624;2023-11-19T05:53:07;101623;;;2.1;100
49583;BME280;36329;48.816;44.624;2023-11-19T05:56:09;101623;;;2.1;100
49583;BME280;36329;48.816;44.624;2023-11-19T05:59:11;101643;;;2.1;100
49583;BME280;36329;48.816;44.624;2023-11-19T06:02:13;101648;;;1.9;100
49583;BME280;36329;48.816;44.624;2023-11-19T06:05:15;101643;;;1.9;100
49583;BME280;36329;48.816;44.624;2023-11-19T06:08:17;101652;;;1.8;100
49583;BME280;36329;48.816;44.624;2023-11-19T06:11:18;101653;;;1.8;100
49583;BME280;36329;48.816;44.624;2023-11-19T06:14:20;101645;;;1.8;100
49583;BME280;36329;48.816;44.624;2023-11-19T06:17:22;101650;;;1.8;100
49583;BME280;36329;48.816;44.624;2023-11-19T06:20:25;101654;;;1.8;100
49583;BME280;36329;48.816;44.624;2023-11-19T06:23:27;101640;;;1.8;100
49583;BME280;36329;48.816;44.624;2023-11-19T06:26:29;101637;;;1.9;100
49583;BME280;36329;48.816;44.624;2023-11-19T06:29:31;101633;;;1.9;100
49583;BME280;36329;48.816;44.624;2023-11-19T06:32:33;101617;;;1.9;100
49583;BME280;36329;48.816;44.624;2023-11-19T06:35:35;101613;;;1.9;100
49583;BME280;36329;48.816;44.624;2023-11-19T06:38:36;101603;;;1.9;100
49583;BME280;36329;48.816;44.624;2023-11-19T06:41:38;101604;;;1.8;100
49583;BME280;36329;48.816;44.624;2023-11-19T06:44:41;101589;;;1.8;100
49583;BME280;36329;48.816;44.624;2023-11-19T06:47:43;101589;;;1.9;100
49583;BME280;36329;48.816;44.624;2023-11-19T06:50:45;101570;;;1.8;100
49583;BME280;36329;48.816;44.624;2023-11-19T06:53:47;101567;;;1.7;100
49583;BME280;36329;48.816;44.624;2023-11-19T06:56:49;101578;;;1.7;100
49583;BME280;36329;48.816;44.624;2023-11-19T06:59:51;101554;;;1.7;100
49583;BME280;36329;48.816;44.624;2023-11-19T07:02:53;101545;;;1.7;100
49583;BME280;36329;48.816;44.624;2023-11-19T07:05:55;101540;;;1.7;100
49583;BME280;36329;48.816;44.624;2023-11-19T07:08:56;101535;;;1.6;100
49583;BME280;36329;48.816;44.624;2023-11-19T07:11:59;101522;;;1.8;100
49583;BME280;36329;48.816;44.624;2023-11-19T07:15:01;101520;;;1.8;100
49583;BME280;36329;48.816;44.624;2023-11-19T07:18:10;101531;;;1.8;100
49583;BME280;36329;48.816;44.624;2023-11-19T07:21:12;101553;;;1.8;100
49583;BME280;36329;48.816;44.624;2023-11-19T07:24:14;101543;;;1.8;100
49583;BME280;36329;48.816;44.624;2023-11-19T07:27:16;101548;;;1.8;100
49583;BME280;36329;48.816;44.624;2023-11-19T07:30:18;101533;;;2;100
49583;BME280;36329;48.816;44.624;2023-11-19T07:33:20;101545;;;1.9;100
49583;BME280;36329;48.816;44.624;2023-11-19T07:36:22;101546;;;1.8;100
49583;BME280;36329;48.816;44.624;2023-11-19T07:39:24;101558;;;1.8;100
49583;BME280;36329;48.816;44.624;2023-11-19T07:42:26;101539;;;1.9;100
49583;BME280;36329;48.816;44.624;2023-11-19T07:45:28;101549;;;2;100
49583;BME280;36329;48.816;44.624;2023-11-19T07:48:30;101556;;;2;100
49583;BME280;36329;48.816;44.624;2023-11-19T07:51:32;101557;;;1.9;100
49583;BME280;36329;48.816;44.624;2023-11-19T07:54:34;101547;;;1.9;100
49583;BME280;36329;48.816;44.624;2023-11-19T07:57:36;101548;;;1.9;100
49583;BME280;36329;48.816;44.624;2023-11-19T08:00:38;101543;;;2;100
49583;BME280;36329;48.816;44.624;2023-11-19T08:03:40;101535;;;2.1;100
49583;BME280;36329;48.816;44.624;2023-11-19T08:06:42;101520;;;2.1;100
49583;BME280;36329;48.816;44.624;2023-11-19T08:09:44;101531;;;2.1;100
49583;BME280;36329;48.816;44.624;2023-11-19T08:12:46;101525;;;2;100
49583;BME280;36329;48.816;44.624;2023-11-19T08:15:48;101520;;;2;100
49583;BME280;36329;48.816;44.624;2023-11-19T08:18:50;101515;;;2;100
49583;BME280;36329;48.816;44.624;2023-11-19T08:21:52;101511;;;2.2;100
49583;BME280;36329;48.816;44.624;2023-11-19T08:24:54;101509;;;2.2;100
49583;BME280;36329;48.816;44.624;2023-11-19T08:27:56;101512;;;2.3;100
49583;BME280;36329;48.816;44.624;2023-11-19T08:30:58;101508;;;2.3;100
49583;BME280;36329;48.816;44.624;2023-11-19T08:34:00;101515;;;2.4;100
49583;BME280;36329;48.816;44.624;2023-11-19T08:37:02;101519;;;2.3;100
49583;BME280;36329;48.816;44.624;2023-11-19T08:40:06;101495;;;2.3;100
49583;BME280;36329;48.816;44.624;2023-11-19T08:43:08;101478;;;2.3;100
49583;BME280;36329;48.816;44.624;2023-11-19T08:46:10;101496;;;2.3;100
49583;BME280;36329;48.816;44.624;2023-11-19T08:49:12;101470;;;2.3;100
49583;BME280;36329;48.816;44.624;2023-11-19T08:52:14;101458;;;2.4;100
49583;BME280;36329;48.816;44.624;2023-11-19T08:55:16;101446;;;2.4;100
49583;BME280;36329;48.816;44.624;2023-11-19T08:58:18;101447;;;2.4;100
49583;BME280;36329;48.816;44.624;2023-11-19T09:01:20;101429;;;2.5;100
49583;BME280;36329;48.816;44.624;2023-11-19T09:04:22;101435;;;2.5;100
49583;BME280;36329;48.816;44.624;2023-11-19T09:07:24;101424;;;2.6;100
49583;BME280;36329;48.816;44.624;2023-11-19T09:10:26;101419;;;2.6;100
49583;BME280;36329;48.816;44.624;2023-11-19T09:13:28;101420;;;2.8;100
49583;BME280;36329;48.816;44.624;2023-11-19T09:16:30;101410;;;2.8;100
49583;BME280;36329;48.816;44.624;2023-11-19T09:19:32;101410;;;2.9;100
49583;BME280;36329;48.816;44.624;2023-11-19T09:22:35;101399;;;2.7;100
49583;BME280;36329;48.816;44.624;2023-11-19T09:25:37;101388;;;2.7;100
49583;BME280;36329;48.816;44.624;2023-11-19T09:28:39;101384;;;2.8;100
49583;BME280;36329;48.816;44.624;2023-11-19T09:31:41;101370;;;2.8;100
49583;BME280;36329;48.816;44.624;2023-11-19T09:34:43;101369;;;2.8;100
49583;BME280;36329;48.816;44.624;2023-11-19T09:37:45;101371;;;2.8;100
49583;BME280;36329;48.816;44.624;2023-11-19T09:40:47;101358;;;2.9;100
49583;BME280;36329;48.816;44.624;2023-11-19T09:43:49;101353;;;2.9;100
49583;BME280;36329;48.816;44.624;2023-11-19T09:46:52;101372;;;3;100
49583;BME280;36329;48.816;44.624;2023-11-19T09:49:54;101364;;;2.9;100
49583;BME280;36329;48.816;44.624;2023-11-19T09:52:56;101352;;;2.8;100
49583;BME280;36329;48.816;44.624;2023-11-19T09:55:59;101357;;;2.8;100
49583;BME280;36329;48.816;44.624;2023-11-19T09:59:01;101351;;;2.9;100
49583;BME280;36329;48.816;44.624;2023-11-19T10:02:04;101357;;;2.8;100
49583;BME280;36329;48.816;44.624;2023-11-19T10:05:07;101361;;;2.9;100
49583;BME280;36329;48.816;44.624;2023-11-19T10:08:09;101361;;;2.9;100
49583;BME280;36329;48.816;44.624;2023-11-19T10:11:11;101357;;;3;100
49583;BME280;36329;48.816;44.624;2023-11-19T10:14:14;101362;;;3.1;100
49583;BME280;36329;48.816;44.624;2023-11-19T10:17:16;101352;;;3.2;100
49583;BME280;36329;48.816;44.624;2023-11-19T10:20:18;101369;;;3.2;100
49583;BME280;36329;48.816;44.624;2023-11-19T10:23:20;101367;;;3.1;100
49583;BME280;36329;48.816;44.624;2023-11-19T10:26:23;101375;;;3.2;100
49583;BME280;36329;48.816;44.624;2023-11-19T10:29:25;101366;;;3.1;100
49583;BME280;36329;48.816;44.624;2023-11-19T10:32:27;101357;;;3.1;99.4
49583;BME280;36329;48.816;44.624;2023-11-19T10:35:29;101364;;;3.1;100
49583;BME280;36329;48.816;44.624;2023-11-19T10:38:31;101362;;;3.1;99.2
49583;BME280;36329;48.816;44.624;2023-11-19T10:41:33;101355;;;3;99
49583;BME280;36329;48.816;44.624;2023-11-19T10:44:35;101361;;;3.1;98.6
49583;BME280;36329;48.816;44.624;2023-11-19T10:47:39;101342;;;3.1;97.8
49583;BME280;36329;48.816;44.624;2023-11-19T10:50:42;101348;;;3.1;97.5
49583;BME280;36329;48.816;44.624;2023-11-19T10:53:45;101358;;;3.1;98.2
49583;BME280;36329;48.816;44.624;2023-11-19T10:56:52;101337;;;3.1;95.9
49583;BME280;36329;48.816;44.624;2023-11-19T11:00:00;101335;;;3;96.9
49583;BME280;36329;48.816;44.624;2023-11-19T11:03:08;101338;;;3.1;97.3
49583;BME280;36329;48.816;44.624;2023-11-19T11:06:13;101324;;;3;97.8
49583;BME280;36329;48.816;44.624;2023-11-19T11:09:16;101314;;;2.8;96.9
49583;BME280;36329;48.816;44.624;2023-11-19T11:12:21;101308;;;2.8;98
49583;BME280;36329;48.816;44.624;2023-11-19T11:15:26;101306;;;2.9;97.8
49583;BME280;36329;48.816;44.624;2023-11-19T11:18:28;101313;;;2.8;96.5
49583;BME280;36329;48.816;44.624;2023-11-19T11:21:30;101300;;;2.9;97.2
49583;BME280;36329;48.816;44.624;2023-11-19T11:24:45;101291;;;2.9;97
49583;BME280;36329;48.816;44.624;2023-11-19T11:28:01;101278;;;2.9;97.7
49583;BME280;36329;48.816;44.624;2023-11-19T11:31:15;101290;;;2.9;98.9
49583;BME280;36329;48.816;44.624;2023-11-19T11:34:43;101292;;;3;97.9
49583;BME280;36329;48.816;44.624;2023-11-19T11:37:53;101302;;;2.8;96.7
49583;BME280;36329;48.816;44.624;2023-11-19T11:41:16;101281;;;2.9;96.5
49583;BME280;36329;48.816;44.624;2023-11-19T11:48:05;101282;;;2.8;94.7
49583;BME280;36329;48.816;44.624;2023-11-19T11:51:08;101284;;;2.8;96.9
49583;BME280;36329;48.816;44.624;2023-11-19T11:54:11;101261;;;2.8;96.9
49583;BME280;36329;48.816;44.624;2023-11-19T11:57:36;101254;;;2.8;95.9
49583;BME280;36329;48.816;44.624;2023-11-19T12:00:40;101255;;;2.6;95.9
49583;BME280;36329;48.816;44.624;2023-11-19T12:03:43;101255;;;2.6;96
49583;BME280;36329;48.816;44.624;2023-11-19T12:07:03;101253;;;2.5;96.2
49583;BME280;36329;48.816;44.624;2023-11-19T12:10:07;101252;;;2.3;95.9
49583;BME280;36329;48.816;44.624;2023-11-19T12:13:11;101249;;;2.3;96.2
49583;BME280;36329;48.816;44.624;2023-11-19T12:16:13;101254;;;2.4;95.6
49583;BME280;36329;48.816;44.624;2023-11-19T12:19:15;101248;;;2.3;93.1
49583;BME280;36329;48.816;44.624;2023-11-19T12:22:17;101233;;;2.3;94.3
49583;BME280;36329;48.816;44.624;2023-11-19T12:25:20;101236;;;2.2;95.3
49583;BME280;36329;48.816;44.624;2023-11-19T12:28:22;101236;;;2.2;93.6
49583;BME280;36329;48.816;44.624;2023-11-19T12:31:24;101234;;;2.2;94.7
49583;BME280;36329;48.816;44.624;2023-11-19T12:34:27;101222;;;2.2;95.4
49583;BME280;36329;48.816;44.624;2023-11-19T12:37:29;101226;;;2.2;95.1
49583;BME280;36329;48.816;44.624;2023-11-19T12:40:32;101230;;;2.2;94.3
49583;BME280;36329;48.816;44.624;2023-11-19T12:43:34;101217;;;2.2;94
49583;BME280;36329;48.816;44.624;2023-11-19T12:46:36;101222;;;2.1;93.3
49583;BME280;36329;48.816;44.624;2023-11-19T12:49:38;101209;;;2;92.5
49583;BME280;36329;48.816;44.624;2023-11-19T12:52:40;101209;;;2;94.7
49583;BME280;36329;48.816;44.624;2023-11-19T12:55:42;101189;;;2;94.4
49583;BME280;36329;48.816;44.624;2023-11-19T12:58:44;101214;;;1.9;92.9
49583;BME280;36329;48.816;44.624;2023-11-19T13:01:53;101187;;;1.8;94.4
49583;BME280;36329;48.816;44.624;2023-11-19T13:04:56;101204;;;1.8;96.2
49583;BME280;36329;48.816;44.624;2023-11-19T13:07:58;101188;;;1.7;95.6
49583;BME280;36329;48.816;44.624;2023-11-19T13:11:01;101188;;;1.7;96.1
49583;BME280;36329;48.816;44.624;2023-11-19T13:14:04;101191;;;1.7;95.8
49583;BME280;36329;48.816;44.624;2023-11-19T13:17:06;101183;;;1.8;95.4
49583;BME280;36329;48.816;44.624;2023-11-19T13:20:08;101204;;;1.7;94.3
49583;BME280;36329;48.816;44.624;2023-11-19T13:23:11;101201;;;1.8;94
49583;BME280;36329;48.816;44.624;2023-11-19T13:26:13;101203;;;1.8;93.8
49583;BME280;36329;48.816;44.624;2023-11-19T13:29:15;101184;;;1.7;94.8
49583;BME280;36329;48.816;44.624;2023-11-19T13:32:17;101195;;;1.7;94.5
49583;BME280;36329;48.816;44.624;2023-11-19T13:35:19;101184;;;1.7;94.3
49583;BME280;36329;48.816;44.624;2023-11-19T13:38:21;101185;;;1.6;93.2
49583;BME280;36329;48.816;44.624;2023-11-19T13:41:23;101208;;;1.7;94.2
49583;BME280;36329;48.816;44.624;2023-11-19T13:44:25;101187;;;1.7;93.1
49583;BME280;36329;48.816;44.624;2023-11-19T13:47:27;101179;;;1.7;93
49583;BME280;36329;48.816;44.624;2023-11-19T13:50:29;101178;;;1.7;93.4
49583;BME280;36329;48.816;44.624;2023-11-19T13:53:31;101178;;;1.7;93.3
49583;BME280;36329;48.816;44.624;2023-11-19T13:56:34;101162;;;1.8;92.9
49583;BME280;36329;48.816;44.624;2023-11-19T13:59:39;101171;;;1.7;91.8
49583;BME280;36329;48.816;44.624;2023-11-19T14:02:43;101157;;;1.7;91.3
49583;BME280;36329;48.816;44.624;2023-11-19T14:05:45;101156;;;1.6;91
49583;BME280;36329;48.816;44.624;2023-11-19T14:08:47;101146;;;1.6;91.5
49583;BME280;36329;48.816;44.624;2023-11-19T14:11:49;101162;;;1.4;91.6
49583;BME280;36329;48.816;44.624;2023-11-19T14:14:51;101165;;;1.5;91.3
49583;BME280;36329;48.816;44.624;2023-11-19T14:17:53;101146;;;1.4;90.4
49583;BME280;36329;48.816;44.624;2023-11-19T14:20:55;101126;;;1.4;91.7
49583;BME280;36329;48.816;44.624;2023-11-19T14:23:57;101129;;;1.5;91.2
49583;BME280;36329;48.816;44.624;2023-11-19T14:26:59;101131;;;1.4;90.4
49583;BME280;36329;48.816;44.624;2023-11-19T14:30:01;101128;;;1.4;90.8
49583;BME280;36329;48.816;44.624;2023-11-19T14:33:05;101128;;;1.4;90.8
49583;BME280;36329;48.816;44.624;2023-11-19T14:36:07;101127;;;1.4;90.9
49583;BME280;36329;48.816;44.624;2023-11-19T14:39:09;101120;;;1.3;90.7
49583;BME280;36329;48.816;44.624;2023-11-19T14:42:11;101133;;;1.4;91.6
49583;BME280;36329;48.816;44.624;2023-11-19T14:45:13;101102;;;1.3;91.8
49583;BME280;36329;48.816;44.624;2023-11-19T14:48:15;101105;;;1.3;91.9
49583;BME280;36329;48.816;44.624;2023-11-19T14:51:17;101079;;;1.2;91.9
49583;BME280;36329;48.816;44.624;2023-11-19T14:54:19;101099;;;1.3;91.5
49583;BME280;36329;48.816;44.624;2023-11-19T14:57:21;101076;;;1.2;92.2
49583;BME280;36329;48.816;44.624;2023-11-19T15:00:23;101087;;;1.3;92.4
49583;BME280;36329;48.816;44.624;2023-11-19T15:03:26;101086;;;1.4;90.8
49583;BME280;36329;48.816;44.624;2023-11-19T15:06:27;101072;;;1.3;92.4
49583;BME280;36329;48.816;44.624;2023-11-19T15:09:29;101084;;;1.3;91.1
49583;BME280;36329;48.816;44.624;2023-11-19T15:12:32;101066;;;1.2;91.7
49583;BME280;36329;48.816;44.624;2023-11-19T15:15:33;101078;;;1;92.1
49583;BME280;36329;48.816;44.624;2023-11-19T15:18:35;101074;;;1.1;93.7
49583;BME280;36329;48.816;44.624;2023-11-19T15:21:37;101067;;;1.2;91.8
49583;BME280;36329;48.816;44.624;2023-11-19T15:24:39;101058;;;1.2;92.2
49583;BME280;36329;48.816;44.624;2023-11-19T15:27:41;101055;;;1.1;94.3
49583;BME280;36329;48.816;44.624;2023-11-19T15:30:43;101054;;;1.2;94.1
49583;BME280;36329;48.816;44.624;2023-11-19T15:33:45;101052;;;1.2;92.2
49583;BME280;36329;48.816;44.624;2023-11-19T15:36:47;101041;;;1.2;92.5
49583;BME280;36329;48.816;44.624;2023-11-19T15:39:49;101032;;;1.1;94.5
49583;BME280;36329;48.816;44.624;2023-11-19T15:42:51;101030;;;1.1;95.8
49583;BME280;36329;48.816;44.624;2023-11-19T15:45:53;101022;;;1.1;96
49583;BME280;36329;48.816;44.624;2023-11-19T15:48:55;101021;;;1;93.8
49583;BME280;36329;48.816;44.624;2023-11-19T15:51:57;101004;;;1;95.4
49583;BME280;36329;48.816;44.624;2023-11-19T15:54:59;101001;;;1;95.9
49583;BME280;36329;48.816;44.624;2023-11-19T15:58:01;100995;;;0.9;95.4
49583;BME280;36329;48.816;44.624;2023-11-19T16:01:03;100999;;;1;96.8
49583;BME280;36329;48.816;44.624;2023-11-19T16:04:06;100993;;;0.9;96.1
49583;BME280;36329;48.816;44.624;2023-11-19T16:07:08;100991;;;1;96.5
49583;BME280;36329;48.816;44.624;2023-11-19T16:10:11;100976;;;1.1;96.3
49583;BME280;36329;48.816;44.624;2023-11-19T16:13:14;100961;;;0.9;95.5
49583;BME280;36329;48.816;44.624;2023-11-19T16:16:16;100954;;;1;96
49583;BME280;36329;48.816;44.624;2023-11-19T16:19:18;100943;;;1.1;96.3
49583;BME280;36329;48.816;44.624;2023-11-19T16:22:20;100968;;;0.9;96
49583;BME280;36329;48.816;44.624;2023-11-19T16:25:23;100951;;;1;96.3
49583;BME280;36329;48.816;44.624;2023-11-19T16:28:25;100941;;;1;96.5
49583;BME280;36329;48.816;44.624;2023-11-19T16:31:27;100942;;;0.9;96.4
49583;BME280;36329;48.816;44.624;2023-11-19T16:34:29;100938;;;0.9;96.3
49583;BME280;36329;48.816;44.624;2023-11-19T16:37:31;100924;;;0.9;96.3
49583;BME280;36329;48.816;44.624;2023-11-19T16:40:33;100907;;;0.8;96.2
49583;BME280;36329;48.816;44.624;2023-11-19T16:43:36;100924;;;0.9;96.4
49583;BME280;36329;48.816;44.624;2023-11-19T16:46:38;100927;;;1;96.6
49583;BME280;36329;48.816;44.624;2023-11-19T16:49:40;100924;;;1;96
49583;BME280;36329;48.816;44.624;2023-11-19T16:52:42;100909;;;1;95.5
49583;BME280;36329;48.816;44.624;2023-11-19T16:55:44;100898;;;0.9;95.9
49583;BME280;36329;48.816;44.624;2023-11-19T16:58:46;100910;;;1;95.5
49583;BME280;36329;48.816;44.624;2023-11-19T17:01:48;100908;;;1;94.7
49583;BME280;36329;48.816;44.624;2023-11-19T17:04:50;100899;;;0.8;96
49583;BME280;36329;48.816;44.624;2023-11-19T17:07:53;100885;;;0.8;96
49583;BME280;36329;48.816;44.624;2023-11-19T17:10:55;100878;;;0.7;96.7
49583;BME280;36329;48.816;44.624;2023-11-19T17:13:57;100870;;;0.7;97.5
49583;BME280;36329;48.816;44.624;2023-11-19T17:16:59;100877;;;0.8;97.2
49583;BME280;36329;48.816;44.624;2023-11-19T17:20:02;100876;;;0.9;96.3